Saturday, December 20, 2014
12:56 UTC
  |  Log In   |  Register Free
Airport Search:

Lewis University Airport
(KLOT)

Lewis University Airport Diagram
No Airport Diagram Available

FAA data valid effective November 13, 2014 - January 08, 2015 (unless otherwise noted).

 
 
 
 
 
 
 
 
 
 
 
 
 
 

Current Aviation Weather for Lewis University Airport (KLOT)

The most recent METAR observation for KLOT was updated at: 2116
METAR Summary (Translated METAR)
KLOT
182055Z AUTO 27004KT 10SM BKN020 M03/M08 A3024 RMK AO2 T10301078
KJOT
182055Z AUTO 00000KT 10SM OVC020 M03/M08 A3024 RMK AO2 T10351082
(6.4 nm SW from KLOT)
KC09
182055Z AUTO 00000KT 10SM OVC021 M03/M07 A3024 RMK AO2 T10291067
(18.2 nm SW from KLOT)
TAF
No TAF information found within 50 nm of KLOT
  Airport Weather Conditions for KLOT

 Current Weather at LOT
28° F
Overcast
North winds at 0.0 mph
LOT NOAA Radar

Pressure: 30.28 in
Humidity: 92%
Wind: Calm
Dew Point: 26.2°F
Visibility: 7.00 mi


Airport Weather Forecast for KLOT

Translated METAR and TAF for KLOT
Translated METAR for KLOT (1257 UTC 20 December 2014)
found at http://aviationweather.gov/adds/metars/
 
METAR text: KLOT 201235Z AUTO 00000KT 5SM BR OVC070 M02/M03 A3028 RMK AO2 T10201030
Conditions at: KLOT (ROMEOVILLE/CHI , IL, US) observed 1235 UTC 20 December 2014
Temperature: -2.0°C (28°F)
Dewpoint: -3.0°C (27°F) [RH = 93%]
Pressure (altimeter): 30.28 inches Hg (1025.5 mb)
Winds: calm
Visibility: 5 miles (8 km)
Ceiling: 7000 feet AGL
Clouds: overcast cloud deck at 7000 feet AGL
Weather: BR  (mist)
Translated TAF for KLOT

There is no translated TAF available for this airport

Find All Airport Services Find A Hotel Find A Rental Car Find A Golf Course Find A Restaurant $100 Hamburger



FBO's on the Field
FBO Company Facility Photos Services Transportation Aviation Fuel Prices: Prices include tax
Catering Weather Repair Courtesy Rental Type 100LL JetA JetA+ MOGAS 8087
 
Lewis University Airport

This FBO has not yet been rated
FS:Phillips 66
Last Updated: Nov-21
Login to update fuel prices
SS:
Contact Lewis University AirportMore FBO Information
 
Add another FBO Facility Photos Catering Weather Repair Courtesy Rental Type 100LL JetA JetA+ MOGAS 8087
Services Transportation Aviation Fuel Prices: Prices include tax


model-print
model-print
model-print
model-print